Nashville, TN (37205)

4:21 PM CDT on July 04, 2015 (GMT -0500)
West Meade | | Change Station
CLOSE
Current Station
Personal Weather Station
Location: Nashville, TN
Elevation: 531 ft
Nearby Weather Stations

Elev 531 ft 36.11 °N, 86.88 °W | Updated 5 seconds ago

Overcast
Overcast
75.6 °F
Feels Like 76 °F
N
0.0
Wind Variable Wind from West
Gusts 0.4 mph

Today
High -- | Low -- °F
--% Chance of Precip.
Yesterday
High -- | Low -- °F
Precip. -- in
5:35 AM 8:08 PM
Waning Gibbous, 90% visible
Pressure 29.96 in
Visibility 10.0 miles
Clouds Scattered Clouds 3700 ft
Mostly Cloudy 4600 ft
Mostly Cloudy 8500 ft
Heat Index 76 °F
Dew Point 72 °F
Humidity 87%
Rainfall 0.00 in
Snow Depth Not available.
UV 4 out of 12
Pollen .50 out of 12
Air Quality Not available.
Flu Activity Not available.
METAR KBNA 042053Z 00000KT 10SM SCT037 BKN046 BKN085 26/22 A2998 RMK AO2 RAE10 SLP146 P0001 60033 T02560217 58006 $

More Conditions Fewer Conditions

Pressure 29.96 in
Visibility 10.0 miles
Clouds Scattered Clouds 3700 ft
Mostly Cloudy 4600 ft
Mostly Cloudy 8500 ft
Heat Index 76 °F
Dew Point 72 °F
Humidity 87%
Rainfall 0.00 in
Snow Depth Not available.
UV 4 out of 12
Pollen .50 out of 12
Air Quality Not available.
Flu Activity Not available.
METAR KBNA 042053Z 00000KT 10SM SCT037 BKN046 BKN085 26/22 A2998 RMK AO2 RAE10 SLP146 P0001 60033 T02560217 58006 $

More Conditions Fewer Conditions

10-Day Weather Forecast

×

Almanac

Astronomy

Jul. 04, 2015 Rise Set
Actual Time
Civil Twilight
Nautical Twilight
Astronomical Twilight
Moon
Length of Visible Light
Length of Day
Tomorrow will be .
, % of the Moon is Illuminated

Today's Extremes

State Highs State Lows

Community

WunderPhotos

Upload Photos

1,835,106 photos uploaded!

WunderBlogs® & News

Nearby

Air Quality

  Air Quality AQ Index Pollutant
Not available.

Snow Depth

Station Depth Elevation

Earthquake Activity

City Distance Mag. Time & Date
Minimum magnitude displayed is 2.5.

Coastal Water Temperatures

Place Temperature

Stations

Nearby Weather Stations

Station Location Temp. Windchill Dew Point Humidity Wind Precip. Elev Updated Type